Time;durP1;ratioP1;P1;durP2;ratioP2;P2;SDS_P1;SDS_P2;PMS_P1;PMS_P2;Temp;Humidity;BMP_temperature;BMP_pressure;BME280_temperature;BME280_humidity;BME280_pressure;Samples;Min_cycle;Max_cycle;Signal;HPM_P1;HPM_P2
2024/03/04 00:02:12;;;;;;;2.90;1.50;;;;;;;;;;5012990;28;20266;-93
2024/03/04 00:04:37;;;;;;;2.05;1.58;;;;;;;;;;5013254;28;20096;-94
2024/03/04 00:07:03;;;;;;;5.20;1.30;;;;;;;;;;5012049;28;20026;-96
2024/03/04 00:09:28;;;;;;;2.50;1.25;;;;;;;;;;5012838;28;20030;-96
2024/03/04 00:11:54;;;;;;;3.97;1.90;;;;;;;;;;5012821;28;20057;-95
2024/03/04 00:14:19;;;;;;;2.75;1.73;;;;;;;;;;5012724;28;20021;-95
2024/03/04 00:16:44;;;;;;;2.83;1.55;;;;;;;;;;5012464;28;20022;-95
2024/03/04 00:19:10;;;;;;;6.05;1.92;;;;;;;;;;5012518;28;20029;-95
2024/03/04 00:21:35;;;;;;;3.13;1.60;;;;;;;;;;5011716;28;20030;-95
2024/03/04 00:24:00;;;;;;;1.80;1.50;;;;;;;;;;5011733;28;20272;-94
2024/03/04 00:26:26;;;;;;;5.00;2.15;;;;;;;;;;5012312;28;20036;-95
2024/03/04 00:28:51;;;;;;;6.40;1.90;;;;;;;;;;5012392;28;20021;-95
2024/03/04 00:31:17;;;;;;;4.93;2.20;;;;;;;;;;5013495;28;20029;-95
2024/03/04 00:33:42;;;;;;;4.63;2.03;;;;;;;;;;5012544;28;20018;-94
2024/03/04 00:36:08;;;;;;;6.28;2.13;;;;;;;;;;5013350;28;20021;-95
2024/03/04 00:38:34;;;;;;;4.78;2.10;;;;;;;;;;5011645;28;20025;-95
2024/03/04 00:40:59;;;;;;;3.97;2.50;;;;;;;;;;5012099;28;20036;-95
2024/03/04 00:43:25;;;;;;;3.10;1.98;;;;;;;;;;5012123;28;20020;-95
2024/03/04 00:45:50;;;;;;;5.70;2.30;;;;;;;;;;5012876;28;20022;-94
2024/03/04 00:48:15;;;;;;;3.03;2.23;;;;;;;;;;5011996;28;20034;-95
2024/03/04 00:50:40;;;;;;;5.60;2.80;;;;;;;;;;5011910;28;20256;-96
2024/03/04 00:53:06;;;;;;;5.57;2.78;;;;;;;;;;5011376;28;20530;-94
2024/03/04 00:55:31;;;;;;;7.05;2.60;;;;;;;;;;5011697;28;20024;-95
2024/03/04 00:57:56;;;;;;;6.03;3.15;;;;;;;;;;5011980;28;20032;-95
2024/03/04 01:00:23;;;;;;;4.55;2.78;;;;;;;;;;5011752;28;20025;-94
2024/03/04 01:02:48;;;;;;;6.00;3.75;;;;;;;;;;5011962;28;20018;-95
2024/03/04 01:05:13;;;;;;;8.48;3.72;;;;;;;;;;5011644;28;20029;-95
2024/03/04 01:07:39;;;;;;;7.22;3.50;;;;;;;;;;5011071;28;20061;-95
2024/03/04 01:10:05;;;;;;;4.43;3.00;;;;;;;;;;5011934;28;20037;-95
2024/03/04 01:12:30;;;;;;;6.55;3.28;;;;;;;;;;5011920;28;20028;-96
2024/03/04 01:14:56;;;;;;;5.18;3.35;;;;;;;;;;5011591;28;20018;-96
2024/03/04 01:17:21;;;;;;;6.82;2.95;;;;;;;;;;5011519;28;20275;-96
2024/03/04 01:19:46;;;;;;;7.50;2.80;;;;;;;;;;5012794;28;20049;-95
2024/03/04 01:22:18;;;;;;;5.85;3.42;;;;;;;;;;5014959;28;20021;-95
2024/03/04 01:24:50;;;;;;;5.63;2.60;;;;;;;;;;5015483;28;20033;-94
2024/03/04 01:27:16;;;;;;;4.68;2.95;;;;;;;;;;5015131;28;20030;-95
2024/03/04 01:29:41;;;;;;;6.55;2.58;;;;;;;;;;5015583;28;20080;-94
2024/03/04 01:32:09;;;;;;;6.72;3.58;;;;;;;;;;5015861;28;20049;-94
2024/03/04 01:34:35;;;;;;;5.38;3.30;;;;;;;;;;5015264;28;20033;-95
2024/03/04 01:37:01;;;;;;;5.07;2.83;;;;;;;;;;5014513;28;20014;-95
2024/03/04 01:39:26;;;;;;;5.63;3.28;;;;;;;;;;5015122;28;20460;-94
2024/03/04 01:41:52;;;;;;;5.18;2.83;;;;;;;;;;5015101;28;20033;-94
2024/03/04 01:44:18;;;;;;;4.80;3.17;;;;;;;;;;5015276;28;20026;-94
2024/03/04 01:46:44;;;;;;;5.45;3.05;;;;;;;;;;5015008;28;20105;-95
2024/03/04 01:49:09;;;;;;;5.45;3.50;;;;;;;;;;5015164;28;20037;-95
2024/03/04 01:51:35;;;;;;;10.75;3.50;;;;;;;;;;5014409;28;20026;-95
2024/03/04 01:54:00;;;;;;;6.30;3.30;;;;;;;;;;5014858;28;20494;-95
2024/03/04 01:56:26;;;;;;;5.55;3.13;;;;;;;;;;5015890;28;20014;-94
2024/03/04 01:58:52;;;;;;;6.28;3.17;;;;;;;;;;5015977;28;20018;-95
2024/03/04 02:01:17;;;;;;;4.28;2.72;;;;;;;;;;5014813;28;20014;-95
2024/03/04 02:03:43;;;;;;;5.95;3.60;;;;;;;;;;5015254;28;20439;-95
2024/03/04 02:06:08;;;;;;;4.15;2.85;;;;;;;;;;5013919;28;20455;-95
2024/03/04 02:08:34;;;;;;;5.78;3.22;;;;;;;;;;5014681;28;20032;-94
2024/03/04 02:10:59;;;;;;;4.95;2.90;;;;;;;;;;5014741;28;20034;-95
2024/03/04 02:13:25;;;;;;;11.20;3.40;;;;;;;;;;5014549;28;20029;-95
2024/03/04 02:15:50;;;;;;;4.93;3.47;;;;;;;;;;5015760;28;20018;-96
2024/03/04 02:18:17;;;;;;;8.20;3.45;;;;;;;;;;5014575;28;20507;-95
2024/03/04 02:20:44;;;;;;;5.47;3.22;;;;;;;;;;5013994;28;20117;-95
2024/03/04 02:23:11;;;;;;;6.75;3.20;;;;;;;;;;5014350;28;20462;-94
2024/03/04 02:25:37;;;;;;;5.32;3.15;;;;;;;;;;5014469;28;20029;-94
2024/03/04 02:28:03;;;;;;;5.88;3.58;;;;;;;;;;5014221;28;20033;-94
2024/03/04 02:30:32;;;;;;;5.45;2.83;;;;;;;;;;5013916;28;20545;-95
2024/03/04 02:32:58;;;;;;;4.22;2.80;;;;;;;;;;5014348;28;20018;-96
2024/03/04 02:35:24;;;;;;;6.45;3.03;;;;;;;;;;5013783;28;20383;-94
2024/03/04 02:37:49;;;;;;;8.50;2.67;;;;;;;;;;5013622;28;20041;-94
2024/03/04 02:40:15;;;;;;;6.25;3.45;;;;;;;;;;5014313;28;20483;-95
2024/03/04 02:42:40;;;;;;;6.35;2.85;;;;;;;;;;5014042;28;20472;-94
2024/03/04 02:45:05;;;;;;;7.50;3.10;;;;;;;;;;5014972;28;20026;-94
2024/03/04 02:47:31;;;;;;;6.57;3.42;;;;;;;;;;5013886;28;20028;-95
2024/03/04 02:49:56;;;;;;;5.53;2.55;;;;;;;;;;5013607;28;20025;-94
2024/03/04 02:52:21;;;;;;;5.18;2.70;;;;;;;;;;5013008;28;20017;-94
2024/03/04 02:54:46;;;;;;;5.10;2.47;;;;;;;;;;5013858;28;20032;-94
2024/03/04 02:57:11;;;;;;;6.68;3.20;;;;;;;;;;5013582;28;20021;-94
2024/03/04 02:59:37;;;;;;;6.63;2.80;;;;;;;;;;5013294;28;20052;-95
2024/03/04 03:02:02;;;;;;;6.30;3.00;;;;;;;;;;5013368;28;20033;-93
2024/03/04 03:04:28;;;;;;;6.28;2.90;;;;;;;;;;5013480;28;20018;-95
2024/03/04 03:06:53;;;;;;;3.75;2.80;;;;;;;;;;5012677;28;20381;-95
2024/03/04 03:09:18;;;;;;;5.63;2.55;;;;;;;;;;5013195;28;20554;-95
2024/03/04 03:11:43;;;;;;;4.50;2.63;;;;;;;;;;5014836;28;20369;-95
2024/03/04 03:14:09;;;;;;;3.85;2.47;;;;;;;;;;5014467;28;20032;-94
2024/03/04 03:16:34;;;;;;;5.38;2.67;;;;;;;;;;5013367;28;20116;-95
2024/03/04 03:19:00;;;;;;;3.78;3.00;;;;;;;;;;5014712;28;20101;-94
2024/03/04 03:21:28;;;;;;;5.00;2.55;;;;;;;;;;5012233;28;20018;-95
2024/03/04 03:23:54;;;;;;;4.53;2.75;;;;;;;;;;5012351;28;20044;-94
2024/03/04 03:26:19;;;;;;;3.92;2.58;;;;;;;;;;5012861;28;20109;-94
2024/03/04 03:28:45;;;;;;;3.45;2.28;;;;;;;;;;5013094;28;20034;-93
2024/03/04 03:31:10;;;;;;;3.38;2.35;;;;;;;;;;5013319;28;20014;-96
2024/03/04 03:33:36;;;;;;;5.32;2.58;;;;;;;;;;5013038;28;20049;-94
2024/03/04 03:36:02;;;;;;;4.07;2.30;;;;;;;;;;5012258;28;20126;-94
2024/03/04 03:38:28;;;;;;;2.75;2.03;;;;;;;;;;5013157;28;20491;-95
2024/03/04 03:40:53;;;;;;;5.82;2.55;;;;;;;;;;5013025;28;20026;-94
2024/03/04 03:43:19;;;;;;;6.85;3.00;;;;;;;;;;5012087;28;20076;-94
2024/03/04 03:45:44;;;;;;;5.10;2.90;;;;;;;;;;5012829;28;20032;-94
2024/03/04 03:48:10;;;;;;;4.20;2.90;;;;;;;;;;5012628;28;20278;-95
2024/03/04 03:50:35;;;;;;;4.03;2.45;;;;;;;;;;5011856;28;20116;-94
2024/03/04 03:53:01;;;;;;;4.88;2.65;;;;;;;;;;5012549;28;20117;-93
2024/03/04 03:55:26;;;;;;;5.95;2.55;;;;;;;;;;5012583;28;20018;-94
2024/03/04 03:57:51;;;;;;;5.97;2.53;;;;;;;;;;5013909;28;20014;-93
2024/03/04 04:00:17;;;;;;;6.00;2.85;;;;;;;;;;5012413;28;20025;-94
2024/03/04 04:02:42;;;;;;;4.15;2.20;;;;;;;;;;5012492;28;20107;-93
2024/03/04 04:05:07;;;;;;;5.18;3.17;;;;;;;;;;5012947;28;20033;-95
2024/03/04 04:07:32;;;;;;;6.68;2.85;;;;;;;;;;5012295;28;20499;-94
2024/03/04 04:09:58;;;;;;;7.55;2.75;;;;;;;;;;5013281;28;20032;-94
2024/03/04 04:12:23;;;;;;;3.58;2.50;;;;;;;;;;5012389;28;20018;-95
2024/03/04 04:14:48;;;;;;;3.77;2.37;;;;;;;;;;5013581;28;20026;-95
2024/03/04 04:17:13;;;;;;;3.13;2.53;;;;;;;;;;5013263;28;20255;-94
2024/03/04 04:19:39;;;;;;;7.97;2.40;;;;;;;;;;5012513;28;20026;-94
2024/03/04 04:22:05;;;;;;;5.22;2.90;;;;;;;;;;5012496;28;20032;-94
2024/03/04 04:24:31;;;;;;;4.22;2.72;;;;;;;;;;5012272;28;20455;-94
2024/03/04 04:26:57;;;;;;;6.13;3.25;;;;;;;;;;5011894;28;20121;-94
2024/03/04 04:29:22;;;;;;;7.88;2.83;;;;;;;;;;5012053;28;20121;-94
2024/03/04 04:31:49;;;;;;;5.45;3.60;;;;;;;;;;5013632;28;20046;-93
2024/03/04 04:34:14;;;;;;;5.07;3.47;;;;;;;;;;5011128;28;20537;-95
2024/03/04 04:36:46;;;;;;;6.15;2.95;;;;;;;;;;5013093;28;20279;-94
2024/03/04 04:39:11;;;;;;;4.18;2.35;;;;;;;;;;5012952;28;20022;-94
2024/03/04 04:41:36;;;;;;;3.93;2.97;;;;;;;;;;5011625;28;20491;-94
2024/03/04 04:44:02;;;;;;;3.90;2.97;;;;;;;;;;5011913;28;20335;-95
2024/03/04 04:46:27;;;;;;;5.70;2.72;;;;;;;;;;5011858;28;20274;-94
2024/03/04 04:48:52;;;;;;;5.78;2.63;;;;;;;;;;5011153;28;20121;-94
2024/03/04 04:51:18;;;;;;;5.20;3.20;;;;;;;;;;5011789;28;20022;-94
2024/03/04 04:53:43;;;;;;;7.60;3.28;;;;;;;;;;5012887;28;20041;-94
2024/03/04 04:56:14;;;;;;;6.25;3.30;;;;;;;;;;5011615;28;20014;-94
2024/03/04 04:58:39;;;;;;;6.50;3.33;;;;;;;;;;5011575;28;20018;-94
2024/03/04 05:01:05;;;;;;;4.97;3.45;;;;;;;;;;5011823;28;20025;-94
2024/03/04 05:03:30;;;;;;;4.43;3.00;;;;;;;;;;5012229;28;20127;-94
2024/03/04 05:05:55;;;;;;;8.27;3.22;;;;;;;;;;5012618;28;20064;-94
2024/03/04 05:08:21;;;;;;;4.20;3.28;;;;;;;;;;5011511;28;20040;-94
2024/03/04 05:10:46;;;;;;;4.22;3.03;;;;;;;;;;5011423;28;20030;-93
2024/03/04 05:13:11;;;;;;;4.63;3.43;;;;;;;;;;5011397;28;20566;-94
2024/03/04 05:15:36;;;;;;;4.00;3.00;;;;;;;;;;5012567;28;20259;-94
2024/03/04 05:18:02;;;;;;;6.37;3.23;;;;;;;;;;5010402;28;20472;-94
2024/03/04 05:20:27;;;;;;;5.18;3.53;;;;;;;;;;5012428;28;20733;-94
2024/03/04 05:22:52;;;;;;;5.07;3.47;;;;;;;;;;5012470;28;20025;-93
2024/03/04 05:25:17;;;;;;;3.93;2.63;;;;;;;;;;5011245;28;20033;-94
2024/03/04 05:27:43;;;;;;;4.07;2.80;;;;;;;;;;5011659;28;20267;-96
2024/03/04 05:30:10;;;;;;;3.67;2.95;;;;;;;;;;5011371;28;20291;-94
2024/03/04 05:32:35;;;;;;;5.95;2.83;;;;;;;;;;5012049;28;20022;-95
2024/03/04 05:35:02;;;;;;;7.50;2.88;;;;;;;;;;5011235;28;20032;-95
2024/03/04 05:37:27;;;;;;;4.03;3.08;;;;;;;;;;5012397;28;20018;-95
2024/03/04 05:39:52;;;;;;;6.07;3.10;;;;;;;;;;5011474;28;20025;-93
2024/03/04 05:42:17;;;;;;;3.57;2.77;;;;;;;;;;5011437;28;20068;-94
2024/03/04 05:44:42;;;;;;;4.07;3.15;;;;;;;;;;5011100;28;20892;-94
2024/03/04 05:47:08;;;;;;;5.63;3.20;;;;;;;;;;5010564;28;20028;-94
2024/03/04 05:49:35;;;;;;;4.47;2.50;;;;;;;;;;5011192;28;20029;-95
2024/03/04 05:52:00;;;;;;;4.97;2.50;;;;;;;;;;5011210;28;20014;-94
2024/03/04 05:54:26;;;;;;;3.67;2.60;;;;;;;;;;5012592;28;20014;-94
2024/03/04 05:56:51;;;;;;;4.28;2.85;;;;;;;;;;5011088;28;20026;-95
2024/03/04 05:59:17;;;;;;;8.02;2.90;;;;;;;;;;5012273;28;20076;-94
2024/03/04 06:01:42;;;;;;;8.43;3.03;;;;;;;;;;5011045;28;20018;-95
2024/03/04 06:04:08;;;;;;;5.30;3.53;;;;;;;;;;5010577;28;20026;-95
2024/03/04 06:06:33;;;;;;;4.95;2.85;;;;;;;;;;5013134;28;20018;-95
2024/03/04 06:08:58;;;;;;;5.03;3.00;;;;;;;;;;5014584;28;20018;-94
2024/03/04 06:11:27;;;;;;;5.63;3.30;;;;;;;;;;5015855;28;20025;-94
2024/03/04 06:13:52;;;;;;;7.75;3.28;;;;;;;;;;5014873;28;20022;-94
2024/03/04 06:16:17;;;;;;;6.25;2.97;;;;;;;;;;5014500;28;20056;-94
2024/03/04 06:18:43;;;;;;;4.13;3.42;;;;;;;;;;5013978;28;20033;-94
2024/03/04 06:21:08;;;;;;;5.38;3.38;;;;;;;;;;5014363;28;20017;-95
2024/03/04 06:23:33;;;;;;;4.87;3.37;;;;;;;;;;5014561;28;20021;-95
2024/03/04 06:25:58;;;;;;;4.88;3.33;;;;;;;;;;5014199;28;20271;-95
2024/03/04 06:28:24;;;;;;;10.27;4.10;;;;;;;;;;5014434;28;20087;-94
2024/03/04 06:30:49;;;;;;;4.93;3.35;;;;;;;;;;5015494;28;20089;-94
2024/03/04 06:33:14;;;;;;;7.50;3.53;;;;;;;;;;4999098;28;20549;-94
2024/03/04 06:35:40;;;;;;;4.90;3.20;;;;;;;;;;4995827;28;20010;-94
2024/03/04 06:38:05;;;;;;;8.55;3.80;;;;;;;;;;4994314;28;20018;-94
2024/03/04 06:40:30;;;;;;;7.40;3.85;;;;;;;;;;5012179;28;20483;-93
2024/03/04 06:42:55;;;;;;;4.28;3.28;;;;;;;;;;5014865;28;20057;-93
2024/03/04 06:45:21;;;;;;;9.90;3.53;;;;;;;;;;5012695;28;20038;-93
2024/03/04 06:47:46;;;;;;;5.45;3.50;;;;;;;;;;5000716;28;20026;-92
2024/03/04 06:50:11;;;;;;;8.07;3.25;;;;;;;;;;5006725;28;20488;-94
2024/03/04 06:52:37;;;;;;;6.53;3.83;;;;;;;;;;5005901;28;20022;-93
2024/03/04 06:55:02;;;;;;;5.25;2.90;;;;;;;;;;4998610;28;20076;-95
2024/03/04 06:57:27;;;;;;;3.97;2.80;;;;;;;;;;5010490;28;20491;-96
2024/03/04 06:59:52;;;;;;;6.90;3.42;;;;;;;;;;5011682;28;20112;-94
2024/03/04 07:02:18;;;;;;;6.57;3.40;;;;;;;;;;5009320;28;20029;-94
2024/03/04 07:04:43;;;;;;;8.10;3.42;;;;;;;;;;4999803;28;20038;-94
2024/03/04 07:07:09;;;;;;;8.05;3.58;;;;;;;;;;4994239;28;20091;-94
2024/03/04 07:09:35;;;;;;;8.48;4.05;;;;;;;;;;5000536;28;20598;-94
2024/03/04 07:12:00;;;;;;;6.20;3.53;;;;;;;;;;5012078;28;20121;-93
2024/03/04 07:14:25;;;;;;;8.70;4.53;;;;;;;;;;5013051;28;20494;-94
2024/03/04 07:16:50;;;;;;;6.97;4.30;;;;;;;;;;5002127;28;20072;-93
2024/03/04 07:19:16;;;;;;;9.18;3.90;;;;;;;;;;5013850;28;20049;-94
2024/03/04 07:21:41;;;;;;;6.10;3.72;;;;;;;;;;5012059;28;20053;-93
2024/03/04 07:24:06;;;;;;;7.38;4.30;;;;;;;;;;5013748;28;20025;-94
2024/03/04 07:26:31;;;;;;;6.03;3.97;;;;;;;;;;5013835;28;20080;-94
2024/03/04 07:28:57;;;;;;;10.50;4.57;;;;;;;;;;5013003;28;20084;-94
2024/03/04 07:31:24;;;;;;;7.18;4.95;;;;;;;;;;5012911;28;20022;-94
2024/03/04 07:33:49;;;;;;;7.32;4.22;;;;;;;;;;5013639;28;20014;-93
2024/03/04 07:36:14;;;;;;;9.07;4.60;;;;;;;;;;5011972;28;20108;-93
2024/03/04 07:38:39;;;;;;;10.95;5.60;;;;;;;;;;4995548;28;20097;-94
2024/03/04 07:41:05;;;;;;;9.23;6.63;;;;;;;;;;4994612;28;20362;-94
2024/03/04 07:43:30;;;;;;;9.32;4.45;;;;;;;;;;5010181;28;20677;-90
2024/03/04 07:45:55;;;;;;;8.32;4.38;;;;;;;;;;4993833;28;20045;-92
2024/03/04 07:48:21;;;;;;;6.60;4.75;;;;;;;;;;5000681;28;20026;-96
2024/03/04 07:50:46;;;;;;;10.40;5.30;;;;;;;;;;5001094;28;20026;-92
2024/03/04 07:53:11;;;;;;;7.15;4.50;;;;;;;;;;5001646;28;20022;-92
2024/03/04 07:55:37;;;;;;;8.20;4.28;;;;;;;;;;4992150;28;20117;-92
2024/03/04 07:58:02;;;;;;;7.88;4.95;;;;;;;;;;5010453;28;20483;-92
2024/03/04 08:00:27;;;;;;;9.80;4.75;;;;;;;;;;5013944;28;20496;-93
2024/03/04 08:02:52;;;;;;;6.65;4.32;;;;;;;;;;5013560;28;20072;-93
2024/03/04 08:05:18;;;;;;;7.18;4.18;;;;;;;;;;5000958;28;20030;-93
2024/03/04 08:07:43;;;;;;;5.93;4.30;;;;;;;;;;4994179;28;20018;-92
2024/03/04 08:10:08;;;;;;;6.20;4.27;;;;;;;;;;4993248;28;20476;-94
2024/03/04 08:12:34;;;;;;;8.68;4.32;;;;;;;;;;5004960;28;20771;-91
2024/03/04 08:14:59;;;;;;;7.53;4.95;;;;;;;;;;5012137;28;20357;-94
2024/03/04 08:17:26;;;;;;;6.32;4.05;;;;;;;;;;5009215;28;20026;-91
2024/03/04 08:19:54;;;;;;;6.50;4.00;;;;;;;;;;5010723;28;20109;-92
2024/03/04 08:22:19;;;;;;;8.48;4.85;;;;;;;;;;5011219;28;20045;-92
2024/03/04 08:24:44;;;;;;;6.80;5.05;;;;;;;;;;5011868;28;20064;-93
2024/03/04 08:27:09;;;;;;;8.43;4.40;;;;;;;;;;5007979;28;20069;-93
2024/03/04 08:29:35;;;;;;;5.50;3.90;;;;;;;;;;4992824;28;20374;-92
2024/03/04 08:32:00;;;;;;;4.63;2.92;;;;;;;;;;4991717;28;20347;-92
2024/03/04 08:34:27;;;;;;;5.63;3.30;;;;;;;;;;4992801;28;20049;-92
2024/03/04 08:36:52;;;;;;;7.47;2.55;;;;;;;;;;4993008;28;20014;-92
2024/03/04 08:39:18;;;;;;;4.75;2.60;;;;;;;;;;5003266;28;20025;-92
2024/03/04 08:41:46;;;;;;;3.13;2.50;;;;;;;;;;5011857;28;20093;-92
2024/03/04 08:44:12;;;;;;;4.60;2.80;;;;;;;;;;5010605;28;20018;-92
2024/03/04 08:46:38;;;;;;;4.22;3.03;;;;;;;;;;5012533;28;20411;-92
2024/03/04 08:49:04;;;;;;;7.43;3.40;;;;;;;;;;5011064;28;20311;-92
2024/03/04 08:51:29;;;;;;;6.90;3.25;;;;;;;;;;5012481;28;20101;-92
2024/03/04 08:53:56;;;;;;;5.97;2.67;;;;;;;;;;5011571;28;20436;-92
2024/03/04 08:56:21;;;;;;;6.65;2.90;;;;;;;;;;5011537;28;20752;-91
2024/03/04 08:58:46;;;;;;;4.05;2.63;;;;;;;;;;5012346;28;20049;-92
2024/03/04 09:01:11;;;;;;;5.10;3.30;;;;;;;;;;5011163;28;20112;-92
2024/03/04 09:03:38;;;;;;;4.77;2.93;;;;;;;;;;5011494;28;20290;-92
2024/03/04 09:06:04;;;;;;;4.93;3.50;;;;;;;;;;5010816;28;20620;-92
2024/03/04 09:08:29;;;;;;;5.15;3.20;;;;;;;;;;4995924;28;20022;-92
2024/03/04 09:10:56;;;;;;;8.75;3.33;;;;;;;;;;5011153;28;20033;-91
2024/03/04 09:13:21;;;;;;;5.20;2.88;;;;;;;;;;5012383;28;20055;-93
2024/03/04 09:15:46;;;;;;;5.50;2.70;;;;;;;;;;5006118;28;20134;-92
2024/03/04 09:18:12;;;;;;;3.50;2.43;;;;;;;;;;4992523;28;20018;-92
2024/03/04 09:20:38;;;;;;;8.77;2.72;;;;;;;;;;4992679;28;20314;-93
2024/03/04 09:23:03;;;;;;;2.97;2.10;;;;;;;;;;4992451;28;20019;-92
2024/03/04 09:25:28;;;;;;;5.30;2.17;;;;;;;;;;4991085;28;20048;-93
2024/03/04 09:27:53;;;;;;;15.57;2.53;;;;;;;;;;4992603;28;20018;-93
2024/03/04 09:30:19;;;;;;;3.80;2.70;;;;;;;;;;4999787;28;20077;-93
2024/03/04 09:32:44;;;;;;;5.32;3.20;;;;;;;;;;5012070;28;20359;-93
2024/03/04 09:35:11;;;;;;;7.37;3.60;;;;;;;;;;5010698;28;20045;-93
2024/03/04 09:37:36;;;;;;;6.65;2.63;;;;;;;;;;5012130;28;20283;-92
2024/03/04 09:40:04;;;;;;;6.80;3.20;;;;;;;;;;5010764;28;20459;-92
2024/03/04 09:42:32;;;;;;;4.68;2.55;;;;;;;;;;5015901;28;20014;-92
2024/03/04 09:44:58;;;;;;;6.82;3.05;;;;;;;;;;5009035;28;20019;-92
2024/03/04 09:47:23;;;;;;;5.47;3.35;;;;;;;;;;4994818;28;20396;-92
2024/03/04 09:49:51;;;;;;;8.10;3.20;;;;;;;;;;4996245;28;20385;-92
2024/03/04 09:52:17;;;;;;;6.20;3.00;;;;;;;;;;4994856;28;20370;-93
2024/03/04 09:54:43;;;;;;;5.30;3.13;;;;;;;;;;4996883;28;20026;-93
2024/03/04 09:57:08;;;;;;;8.68;3.50;;;;;;;;;;5014206;28;20368;-92
2024/03/04 09:59:34;;;;;;;8.93;3.63;;;;;;;;;;5015630;28;20026;-92
2024/03/04 10:02:01;;;;;;;6.68;3.03;;;;;;;;;;5015905;28;20022;-93
2024/03/04 10:04:26;;;;;;;7.85;5.07;;;;;;;;;;5015491;28;20100;-93
2024/03/04 10:06:52;;;;;;;8.05;2.88;;;;;;;;;;5013998;28;20053;-92
2024/03/04 10:09:17;;;;;;;7.90;3.03;;;;;;;;;;5014800;28;20674;-92
2024/03/04 10:11:43;;;;;;;6.75;2.85;;;;;;;;;;5014321;28;20053;-93
2024/03/04 10:14:08;;;;;;;13.18;2.78;;;;;;;;;;5015521;28;20455;-92
2024/03/04 10:16:34;;;;;;;7.50;2.80;;;;;;;;;;5013939;28;20018;-93
2024/03/04 10:19:03;;;;;;;7.97;2.83;;;;;;;;;;5013858;28;20460;-93
2024/03/04 10:21:29;;;;;;;9.10;2.35;;;;;;;;;;5013183;28;20030;-93
2024/03/04 10:23:56;;;;;;;8.40;2.55;;;;;;;;;;5013797;28;20079;-93
2024/03/04 10:26:21;;;;;;;4.32;1.92;;;;;;;;;;5014992;28;20104;-92
2024/03/04 10:28:46;;;;;;;6.77;2.67;;;;;;;;;;5013626;28;20579;-93
2024/03/04 10:31:12;;;;;;;12.57;2.50;;;;;;;;;;5013870;28;20270;-92
2024/03/04 10:33:39;;;;;;;6.75;2.50;;;;;;;;;;5014759;28;20274;-92
2024/03/04 10:36:18;;;;;;;8.27;2.60;;;;;;;;;;5014016;28;20037;-92
2024/03/04 10:38:45;;;;;;;7.75;1.90;;;;;;;;;;5014805;28;20022;-93
2024/03/04 10:41:19;;;;;;;12.10;1.60;;;;;;;;;;5014925;28;20028;-93
2024/03/04 10:43:45;;;;;;;7.40;2.30;;;;;;;;;;5013418;28;20021;-93
2024/03/04 10:46:10;;;;;;;12.82;1.80;;;;;;;;;;5013649;28;20022;-93
2024/03/04 10:48:37;;;;;;;11.70;1.70;;;;;;;;;;5014476;28;20014;-93
2024/03/04 10:51:03;;;;;;;11.07;2.17;;;;;;;;;;5014353;28;20044;-93
2024/03/04 10:53:28;;;;;;;5.03;1.58;;;;;;;;;;5014624;28;20409;-93
2024/03/04 10:55:54;;;;;;;6.72;1.90;;;;;;;;;;5014446;28;20018;-94
2024/03/04 10:58:19;;;;;;;8.88;1.60;;;;;;;;;;5013448;28;20057;-93
2024/03/04 11:00:45;;;;;;;10.85;2.10;;;;;;;;;;5014274;28;20108;-93
2024/03/04 11:03:16;;;;;;;7.25;1.40;;;;;;;;;;5014462;28;20022;-93
2024/03/04 11:05:50;;;;;;;7.75;1.60;;;;;;;;;;5013079;28;20026;-93
2024/03/04 11:08:30;;;;;;;7.90;2.00;;;;;;;;;;5014283;28;20026;-93
2024/03/04 11:11:16;;;;;;;13.60;2.15;;;;;;;;;;5013566;28;20033;-94
2024/03/04 11:13:53;;;;;;;8.40;1.95;;;;;;;;;;5014313;28;20057;-94
2024/03/04 11:16:29;;;;;;;9.98;2.10;;;;;;;;;;5014161;28;20029;-93
2024/03/04 11:19:13;;;;;;;5.63;1.17;;;;;;;;;;5012813;28;20561;-92
2024/03/04 11:21:42;;;;;;;6.53;1.48;;;;;;;;;;5012857;28;20064;-93
2024/03/04 11:24:09;;;;;;;8.82;1.55;;;;;;;;;;5012954;28;20392;-93
2024/03/04 11:26:35;;;;;;;10.13;2.05;;;;;;;;;;4998907;28;20054;-93
2024/03/04 11:29:01;;;;;;;11.93;1.73;;;;;;;;;;5010931;28;20095;-93
2024/03/04 11:31:27;;;;;;;13.75;2.70;;;;;;;;;;5013903;28;20100;-93
2024/03/04 11:34:05;;;;;;;7.43;1.73;;;;;;;;;;5013901;28;20022;-92
2024/03/04 11:36:33;;;;;;;12.35;2.00;;;;;;;;;;5013688;28;20045;-92
2024/03/04 11:39:02;;;;;;;7.38;1.00;;;;;;;;;;5013873;28;20503;-91
2024/03/04 11:41:37;;;;;;;10.00;1.95;;;;;;;;;;5013829;28;20034;-92
2024/03/04 11:44:03;;;;;;;9.32;1.50;;;;;;;;;;5012785;28;20018;-93
2024/03/04 11:46:31;;;;;;;9.13;1.10;;;;;;;;;;5012687;28;20026;-92
2024/03/04 11:48:58;;;;;;;9.13;1.10;;;;;;;;;;5010999;28;20026;-92
2024/03/04 11:51:42;;;;;;;10.55;1.67;;;;;;;;;;5013327;28;20022;-92
2024/03/04 11:54:08;;;;;;;9.68;1.48;;;;;;;;;;5012305;28;20345;-93
2024/03/04 11:56:33;;;;;;;5.82;1.15;;;;;;;;;;5017799;28;20252;-92
2024/03/04 11:58:59;;;;;;;9.80;2.00;;;;;;;;;;5014205;28;20468;-93
2024/03/04 12:01:24;;;;;;;6.77;1.00;;;;;;;;;;5013324;28;20025;-93
2024/03/04 12:03:52;;;;;;;7.07;1.10;;;;;;;;;;5011837;28;20279;-93
2024/03/04 12:06:18;;;;;;;6.35;1.52;;;;;;;;;;5013487;28;20460;-92
2024/03/04 12:08:43;;;;;;;15.20;1.52;;;;;;;;;;5012382;28;20041;-93
2024/03/04 12:11:09;;;;;;;8.77;1.67;;;;;;;;;;5012959;28;20137;-93
2024/03/04 12:13:34;;;;;;;8.40;1.55;;;;;;;;;;5013268;28;20488;-92
2024/03/04 12:15:59;;;;;;;7.72;1.80;;;;;;;;;;5013199;28;20022;-93
2024/03/04 12:18:26;;;;;;;9.43;0.93;;;;;;;;;;5011263;28;20025;-93
2024/03/04 12:20:53;;;;;;;6.55;1.05;;;;;;;;;;5013107;28;20255;-93
2024/03/04 12:23:18;;;;;;;7.78;1.13;;;;;;;;;;5013067;28;20467;-92
2024/03/04 12:25:44;;;;;;;9.00;1.02;;;;;;;;;;5002534;28;20045;-91
2024/03/04 12:28:14;;;;;;;8.52;0.90;;;;;;;;;;5011104;28;20487;-93
2024/03/04 12:30:40;;;;;;;7.93;1.17;;;;;;;;;;5010416;28;20038;-92
2024/03/04 12:33:06;;;;;;;5.78;0.95;;;;;;;;;;5009419;28;20033;-93
2024/03/04 12:35:32;;;;;;;11.15;1.63;;;;;;;;;;4996701;28;20491;-93
2024/03/04 12:37:59;;;;;;;9.82;1.35;;;;;;;;;;4992123;28;20019;-95
2024/03/04 12:40:25;;;;;;;8.80;0.95;;;;;;;;;;5004084;28;20029;-92
2024/03/04 12:42:52;;;;;;;6.28;1.20;;;;;;;;;;4997717;28;20022;-91
2024/03/04 12:45:17;;;;;;;13.77;1.10;;;;;;;;;;4992708;28;20105;-93
2024/03/04 12:47:42;;;;;;;5.32;0.82;;;;;;;;;;5005702;28;20089;-94
2024/03/04 12:50:07;;;;;;;13.40;1.40;;;;;;;;;;5000444;28;20034;-93
2024/03/04 12:52:34;;;;;;;9.18;1.30;;;;;;;;;;5004203;28;20017;-93
2024/03/04 12:54:59;;;;;;;8.32;1.00;;;;;;;;;;5011358;28;20026;-90
2024/03/04 12:57:24;;;;;;;5.57;1.02;;;;;;;;;;5011891;28;20044;-91
2024/03/04 12:59:50;;;;;;;8.00;1.17;;;;;;;;;;5012628;28;20036;-92
2024/03/04 13:02:16;;;;;;;9.48;1.75;;;;;;;;;;5011552;28;20022;-95
2024/03/04 13:04:41;;;;;;;8.02;1.25;;;;;;;;;;5011441;28;20064;-93
2024/03/04 13:07:07;;;;;;;7.07;1.90;;;;;;;;;;5013035;28;20098;-90
2024/03/04 13:09:32;;;;;;;6.32;0.80;;;;;;;;;;4992279;28;20374;-91
2024/03/04 13:11:57;;;;;;;7.50;1.10;;;;;;;;;;4991664;28;20022;-91
2024/03/04 13:14:22;;;;;;;16.90;1.73;;;;;;;;;;4992246;28;20101;-92
2024/03/04 13:16:48;;;;;;;10.10;1.10;;;;;;;;;;4992507;28;20302;-93
2024/03/04 13:19:15;;;;;;;6.40;1.35;;;;;;;;;;4991443;28;20599;-92
2024/03/04 13:21:40;;;;;;;14.15;0.90;;;;;;;;;;4998588;28;20028;-93
2024/03/04 13:24:06;;;;;;;7.47;0.98;;;;;;;;;;5011179;28;20026;-92
2024/03/04 13:26:31;;;;;;;17.70;1.33;;;;;;;;;;5010077;28;20026;-94
2024/03/04 13:28:56;;;;;;;9.05;1.17;;;;;;;;;;5011986;28;20026;-93
2024/03/04 13:31:21;;;;;;;6.00;1.23;;;;;;;;;;5012244;28;20456;-92
2024/03/04 13:33:47;;;;;;;12.02;1.58;;;;;;;;;;5011142;28;20278;-92
2024/03/04 13:36:12;;;;;;;6.55;2.28;;;;;;;;;;5010634;28;20383;-92
2024/03/04 13:38:37;;;;;;;6.68;1.33;;;;;;;;;;5010139;28;20022;-91
2024/03/04 13:41:03;;;;;;;12.33;1.90;;;;;;;;;;4996617;28;20030;-96
2024/03/04 13:43:28;;;;;;;7.55;1.40;;;;;;;;;;5010510;28;20262;-91
2024/03/04 13:45:54;;;;;;;13.40;1.48;;;;;;;;;;5000260;28;20096;-91
2024/03/04 13:48:19;;;;;;;10.60;1.42;;;;;;;;;;4991536;28;20046;-92
2024/03/04 13:50:45;;;;;;;14.57;1.30;;;;;;;;;;4991997;28;20065;-92
2024/03/04 13:53:10;;;;;;;7.18;1.42;;;;;;;;;;5007354;28;20029;-96
2024/03/04 13:55:35;;;;;;;14.70;1.27;;;;;;;;;;5010541;28;20495;-93
2024/03/04 13:58:00;;;;;;;10.18;1.42;;;;;;;;;;5011845;28;20748;-91
2024/03/04 14:00:26;;;;;;;6.25;1.52;;;;;;;;;;4999180;28;20108;-93
2024/03/04 14:02:51;;;;;;;9.50;1.30;;;;;;;;;;4996077;28;20252;-93
2024/03/04 14:05:16;;;;;;;6.80;1.30;;;;;;;;;;5011514;28;20248;-92
2024/03/04 14:07:43;;;;;;;11.57;2.70;;;;;;;;;;4997585;28;20276;-92
2024/03/04 14:10:10;;;;;;;6.05;1.20;;;;;;;;;;4995815;28;20793;-93
2024/03/04 14:12:36;;;;;;;14.85;2.33;;;;;;;;;;4991884;28;20034;-92
2024/03/04 14:15:02;;;;;;;9.98;1.42;;;;;;;;;;4998177;28;20014;-93
2024/03/04 14:17:28;;;;;;;7.07;1.42;;;;;;;;;;5001397;28;20023;-92
2024/03/04 14:19:53;;;;;;;8.35;2.35;;;;;;;;;;4992904;28;20034;-92
2024/03/04 14:22:19;;;;;;;8.70;1.35;;;;;;;;;;4995805;28;20422;-90
2024/03/04 14:24:44;;;;;;;10.50;1.80;;;;;;;;;;4990723;28;20030;-91
2024/03/04 14:27:09;;;;;;;7.88;1.65;;;;;;;;;;4993412;28;20339;-91
2024/03/04 14:29:35;;;;;;;7.05;1.60;;;;;;;;;;4997072;28;20034;-91
2024/03/04 14:32:01;;;;;;;7.07;1.48;;;;;;;;;;5003993;28;20041;-92
2024/03/04 14:34:29;;;;;;;9.40;3.15;;;;;;;;;;5014745;28;20026;-91